Whipple, Ohio
Current Conditions -  °F | °C
As of 2:53 PM on Thursday 29 Jan 2015 (Local Time) from KPKB Reporting Station
Overcast Overcast  
Wind Chill: 38°   Ceiling: 3800
Heat Index: 43°   Visibility: 10mi
Dew Point: 35°   Wind: 8mph
Humidity: 74%   Direction: 190°S
Pressure: 29.86"   Gusts: NA
Location:  39.52°N, 81.41°W
Report Text: KPKB 291953Z 19007KT 10SM OVC038 06/02 A2986 RMK AO2 SLP118 T00610017
Loading
Personal Weather Stations






























Interactive Weather Map New forecast layout! Learn more

10-Day Weather Forecast

Advertisements
Track Severe Weather on mobile